createdAt,value
2023-09-05T00:00:02.694Z,0
2023-09-05T00:15:03.047Z,0
2023-09-05T00:30:02.675Z,0
2023-09-05T00:45:03.007Z,0
2023-09-05T01:00:02.345Z,0
2023-09-05T01:15:02.806Z,0
2023-09-05T01:30:02.231Z,0
2023-09-05T01:45:02.702Z,0
2023-09-05T02:00:03.135Z,0
2023-09-05T02:15:02.677Z,0
2023-09-05T02:30:03.009Z,0
2023-09-05T02:45:02.612Z,0
2023-09-05T03:00:02.889Z,0
2023-09-05T03:15:02.321Z,0
2023-09-05T03:30:02.750Z,0
2023-09-05T03:45:03.190Z,0
2023-09-05T04:00:02.710Z,0
2023-09-05T04:15:03.030Z,0
2023-09-05T04:30:02.706Z,0
2023-09-05T04:45:02.943Z,0
2023-09-05T05:00:02.364Z,2
2023-09-05T05:15:02.839Z,9
2023-09-05T05:30:02.297Z,13
2023-09-05T05:45:02.732Z,18
2023-09-05T06:00:03.145Z,40
2023-09-05T06:15:02.777Z,139
2023-09-05T06:30:01.961Z,176
2023-09-05T06:45:02.411Z,208
2023-09-05T07:00:02.886Z,246
2023-09-05T07:15:02.296Z,281
2023-09-05T07:30:02.774Z,313
2023-09-05T07:45:03.169Z,337
2023-09-05T08:00:02.772Z,359
2023-09-05T08:15:03.040Z,380
2023-09-05T08:30:02.495Z,419
2023-09-05T08:45:02.919Z,454
2023-09-05T09:00:02.351Z,475
2023-09-05T09:15:02.776Z,495
2023-09-05T09:30:02.259Z,518
2023-09-05T09:45:02.773Z,532
2023-09-05T10:00:03.120Z,551
2023-09-05T10:15:02.780Z,553
2023-09-05T10:30:01.980Z,568
2023-09-05T10:45:02.419Z,573
2023-09-05T11:00:02.875Z,581
2023-09-05T11:15:02.297Z,582
2023-09-05T11:30:02.805Z,582
2023-09-05T11:45:02.156Z,577
2023-09-05T12:00:02.786Z,570
2023-09-05T12:15:03.066Z,564
2023-09-05T12:30:02.511Z,551
2023-09-05T12:45:02.927Z,537
2023-09-05T13:00:02.384Z,521
2023-09-05T13:15:02.825Z,504
2023-09-05T13:30:02.237Z,488
2023-09-05T13:45:02.861Z,467
2023-09-05T14:00:02.123Z,444
2023-09-05T14:15:02.800Z,415
2023-09-05T14:30:02.015Z,90
2023-09-05T14:45:02.453Z,311
2023-09-05T15:00:02.900Z,336
2023-09-05T15:15:02.312Z,308
2023-09-05T15:30:02.900Z,275
2023-09-05T15:45:02.175Z,242
2023-09-05T16:00:02.856Z,209
2023-09-05T16:15:02.173Z,177
2023-09-05T16:30:02.486Z,143
2023-09-05T16:45:02.954Z,112
2023-09-05T17:00:02.376Z,80
2023-09-05T17:15:02.862Z,53
2023-09-05T17:30:02.224Z,22
2023-09-05T17:45:02.866Z,7
2023-09-05T18:00:02.104Z,0
2023-09-05T18:15:02.558Z,0
2023-09-05T18:30:02.991Z,0
2023-09-05T18:45:02.420Z,0
2023-09-05T19:00:02.853Z,0
2023-09-05T19:15:02.288Z,0
2023-09-05T19:30:02.857Z,0
2023-09-05T19:45:02.154Z,0
2023-09-05T20:00:02.626Z,0
2023-09-05T20:15:03.041Z,0
2023-09-05T20:30:02.494Z,0
2023-09-05T20:45:02.911Z,0
2023-09-05T21:00:02.331Z,0
2023-09-05T21:15:02.900Z,0
2023-09-05T21:30:02.225Z,0
2023-09-05T21:45:02.896Z,0
2023-09-05T22:00:02.192Z,0
2023-09-05T22:15:02.521Z,0
2023-09-05T22:30:02.999Z,0
2023-09-05T22:45:02.414Z,0
2023-09-05T23:00:02.922Z,0
2023-09-05T23:15:02.281Z,0
2023-09-05T23:30:02.904Z,0
2023-09-05T23:45:02.205Z,0
